Time;durP1;ratioP1;P1;durP2;ratioP2;P2;SDS_P1;SDS_P2;PMS_P1;PMS_P2;Temp;Humidity;BMP_temperature;BMP_pressure;BME280_temperature;BME280_humidity;BME280_pressure;Samples;Min_cycle;Max_cycle;Signal;HPM_P1;HPM_P2
2021/04/22 00:00:07;;;;;;;3.55;2.50;;;;;;;22.80;43.19;95281.19;4991289;28;20026;-73
2021/04/22 00:02:33;;;;;;;3.65;2.30;;;;;;;22.73;42.84;95270.09;4991058;28;20117;-73
2021/04/22 00:04:58;;;;;;;4.20;2.28;;;;;;;22.71;42.97;95261.69;4991477;28;20034;-73
2021/04/22 00:07:23;;;;;;;3.03;2.22;;;;;;;22.74;43.19;95274.28;4989521;28;20422;-73
2021/04/22 00:09:50;;;;;;;3.63;2.45;;;;;;;22.59;43.32;95255.50;4990840;28;20034;-73
2021/04/22 00:12:16;;;;;;;3.13;2.28;;;;;;;22.70;43.01;95273.81;4990911;28;20022;-74
2021/04/22 00:14:41;;;;;;;4.20;2.80;;;;;;;22.70;42.85;95265.63;4973376;28;20030;-73
2021/04/22 00:17:07;;;;;;;3.00;2.30;;;;;;;22.57;43.07;95246.34;4990516;28;20046;-73
2021/04/22 00:19:33;;;;;;;3.20;2.35;;;;;;;22.66;42.89;95265.13;4973878;28;20773;-73
2021/04/22 00:21:58;;;;;;;3.45;2.35;;;;;;;22.68;43.09;95268.13;4989070;28;20034;-73
2021/04/22 00:24:24;;;;;;;3.28;2.42;;;;;;;22.49;42.79;95245.38;4973398;28;20034;-73
2021/04/22 00:26:49;;;;;;;3.20;2.50;;;;;;;22.61;43.04;95257.72;4990724;28;20034;-73
2021/04/22 00:29:15;;;;;;;3.38;2.50;;;;;;;22.46;43.19;95236.22;4990741;28;20031;-74
2021/04/22 00:31:40;;;;;;;3.15;2.30;;;;;;;22.60;43.21;95261.69;4991167;28;20084;-73
2021/04/22 00:34:06;;;;;;;3.33;2.40;;;;;;;22.58;43.23;95264.16;4991671;28;20077;-73
2021/04/22 00:36:31;;;;;;;3.67;2.47;;;;;;;22.43;43.00;95239.97;4993959;28;20033;-73
2021/04/22 00:38:57;;;;;;;3.72;2.45;;;;;;;22.51;43.19;95259.97;4975563;28;20037;-73
2021/04/22 00:41:22;;;;;;;3.30;2.42;;;;;;;22.57;43.16;95274.31;4975867;28;20034;-73
2021/04/22 00:43:47;;;;;;;3.83;2.60;;;;;;;22.41;43.29;95244.41;4993097;28;20034;-73
2021/04/22 00:46:13;;;;;;;4.18;2.67;;;;;;;22.56;43.21;95266.66;4993058;28;20568;-73
2021/04/22 00:48:38;;;;;;;3.65;2.78;;;;;;;22.38;43.21;95239.97;4991100;28;20031;-74
2021/04/22 00:51:04;;;;;;;3.30;2.35;;;;;;;22.39;43.16;95246.13;4990208;28;20035;-73
2021/04/22 00:53:30;;;;;;;3.60;2.40;;;;;;;22.37;43.35;95243.91;4957293;28;20038;-73
2021/04/22 00:55:55;;;;;;;3.05;2.17;;;;;;;22.56;42.97;95266.66;4972594;28;20037;-73
2021/04/22 00:58:21;;;;;;;3.30;2.50;;;;;;;22.48;43.18;95265.66;4972903;28;20508;-74
2021/04/22 01:00:57;;;;;;;3.70;2.45;;;;;;;22.50;43.29;95274.09;4972921;28;20026;-74
2021/04/22 01:03:23;;;;;;;4.75;2.88;;;;;;;22.45;43.31;95277.53;4974181;28;20251;-73
2021/04/22 01:05:50;;;;;;;3.60;2.28;;;;;;;22.50;43.40;95276.81;4972932;28;20023;-73
2021/04/22 01:08:16;;;;;;;3.83;2.58;;;;;;;22.49;43.40;95288.94;4990296;28;20058;-74
2021/04/22 01:10:41;;;;;;;3.30;2.40;;;;;;;22.44;43.25;95276.06;4990099;28;20070;-74
2021/04/22 01:13:07;;;;;;;3.75;2.58;;;;;;;22.47;43.38;95285.97;4989997;28;20081;-73
2021/04/22 01:15:33;;;;;;;3.67;2.60;;;;;;;22.41;43.36;95281.78;4990075;28;20041;-74
2021/04/22 01:17:59;;;;;;;4.32;2.90;;;;;;;22.43;43.43;95280.03;4972265;28;20054;-73
2021/04/22 01:20:28;;;;;;;3.50;2.65;;;;;;;22.35;43.12;95267.44;4972661;28;20026;-73
2021/04/22 01:22:54;;;;;;;4.00;2.70;;;;;;;22.45;43.26;95277.53;4969309;28;20062;-73
2021/04/22 01:25:37;;;;;;;3.10;2.50;;;;;;;22.41;43.37;95277.06;4972263;28;20060;-73
2021/04/22 01:28:03;;;;;;;3.75;2.50;;;;;;;22.38;43.33;95282.78;4989753;28;20073;-73
2021/04/22 01:30:36;;;;;;;4.25;2.90;;;;;;;22.42;43.34;95284.72;4989318;28;20029;-73
2021/04/22 01:33:04;;;;;;;3.22;2.40;;;;;;;22.41;43.37;95279.78;4989904;28;20026;-73
2021/04/22 01:35:33;;;;;;;4.38;2.83;;;;;;;22.37;43.18;95273.84;4989816;28;20042;-73
2021/04/22 01:37:59;;;;;;;4.63;2.87;;;;;;;22.39;43.15;95282.28;4989490;28;20030;-73
2021/04/22 01:40:25;;;;;;;3.85;2.70;;;;;;;22.04;43.29;95235.75;4989609;28;20533;-73
2021/04/22 01:42:51;;;;;;;3.47;2.53;;;;;;;22.14;43.23;95261.47;4972048;28;20076;-73
2021/04/22 01:45:16;;;;;;;3.97;2.67;;;;;;;22.35;43.40;95287.22;4971803;28;20469;-73
2021/04/22 01:47:43;;;;;;;3.50;2.58;;;;;;;22.29;43.33;95270.16;4989198;28;20022;-73
2021/04/22 01:50:09;;;;;;;3.90;2.58;;;;;;;22.34;43.30;95277.56;4972137;28;20113;-73
2021/04/22 01:52:35;;;;;;;4.03;2.78;;;;;;;22.35;43.41;95289.19;4989403;28;20034;-74
2021/04/22 01:55:01;;;;;;;4.10;2.58;;;;;;;22.31;43.50;95278.53;4989604;28;20633;-73
2021/04/22 01:57:26;;;;;;;3.97;2.30;;;;;;;22.31;43.32;95281.28;4989332;28;20026;-73
2021/04/22 01:59:52;;;;;;;3.58;2.40;;;;;;;22.33;43.32;95280.78;4971853;28;20509;-74
2021/04/22 02:02:17;;;;;;;4.10;2.60;;;;;;;22.31;43.19;95281.28;4989574;28;20101;-73
2021/04/22 02:04:44;;;;;;;3.63;2.80;;;;;;;22.20;43.42;95259.50;4987761;28;20049;-74
2021/04/22 02:07:09;;;;;;;3.00;2.17;;;;;;;22.30;43.18;95281.75;4988701;28;20026;-73
2021/04/22 02:09:35;;;;;;;3.10;2.60;;;;;;;22.29;43.39;95275.59;4988751;28;20034;-73
2021/04/22 02:12:00;;;;;;;3.85;2.65;;;;;;;22.11;43.32;95251.56;4989277;28;20026;-74
2021/04/22 02:14:26;;;;;;;3.97;2.50;;;;;;;22.28;43.43;95282.25;4989042;28;20034;-73
2021/04/22 02:16:51;;;;;;;3.83;2.65;;;;;;;22.29;43.35;95280.28;4988655;28;20058;-73
2021/04/22 02:19:17;;;;;;;3.92;2.75;;;;;;;22.21;43.43;95273.84;4971381;28;20034;-73
2021/04/22 02:21:42;;;;;;;4.00;2.72;;;;;;;22.25;43.42;95277.81;4988421;28;20018;-73
2021/04/22 02:24:08;;;;;;;3.90;2.63;;;;;;;22.19;43.36;95265.44;4970983;28;20418;-73
2021/04/22 02:26:34;;;;;;;4.10;2.45;;;;;;;22.10;43.30;95266.41;4988502;28;20038;-73
2021/04/22 02:28:59;;;;;;;3.10;2.40;;;;;;;22.22;43.24;95281.50;4971448;28;20084;-73
2021/04/22 02:31:25;;;;;;;3.03;2.45;;;;;;;22.23;43.28;95290.44;4988865;28;20037;-73
2021/04/22 02:33:53;;;;;;;3.13;2.47;;;;;;;22.21;43.30;95277.34;4988684;28;20029;-74
2021/04/22 02:36:19;;;;;;;3.45;2.47;;;;;;;22.24;43.26;95284.50;4988639;28;20022;-73
2021/04/22 02:38:44;;;;;;;3.35;2.40;;;;;;;22.23;43.42;95288.44;4988490;28;20085;-73
2021/04/22 02:41:10;;;;;;;3.33;2.80;;;;;;;22.02;43.40;95272.84;4989005;28;20034;-73
2021/04/22 02:43:35;;;;;;;3.63;2.60;;;;;;;22.21;43.25;95299.09;4988935;28;20030;-73
2021/04/22 02:46:01;;;;;;;3.97;2.65;;;;;;;22.21;43.42;95295.59;4988855;28;20080;-74
2021/04/22 02:48:26;;;;;;;3.53;2.60;;;;;;;22.17;43.44;95295.09;4988805;28;20105;-74
2021/04/22 02:50:54;;;;;;;4.07;2.90;;;;;;;21.97;43.46;95266.16;4988623;28;20461;-73
2021/04/22 02:53:20;;;;;;;4.03;2.47;;;;;;;22.20;43.52;95294.13;4988735;28;20065;-74
2021/04/22 02:55:46;;;;;;;3.80;2.50;;;;;;;22.20;43.39;95300.28;4988354;28;20026;-73
2021/04/22 02:58:12;;;;;;;2.90;2.55;;;;;;;22.20;43.45;95289.41;4988904;28;20035;-73
2021/04/22 03:00:37;;;;;;;3.83;2.80;;;;;;;21.98;43.39;95266.91;4988732;28;20429;-74
2021/04/22 03:03:03;;;;;;;4.18;2.72;;;;;;;22.17;43.51;95295.84;4971392;28;20721;-73
2021/04/22 03:05:29;;;;;;;3.75;2.55;;;;;;;22.11;43.16;95292.38;4988634;28;20054;-73
2021/04/22 03:07:54;;;;;;;4.25;2.88;;;;;;;22.11;43.65;95286.94;4988682;28;20421;-74
2021/04/22 03:10:20;;;;;;;3.50;2.47;;;;;;;22.14;43.47;95296.81;4988300;28;20417;-73
2021/04/22 03:12:46;;;;;;;4.63;2.72;;;;;;;22.14;43.46;95296.81;4988533;28;20049;-73
2021/04/22 03:15:12;;;;;;;3.35;2.40;;;;;;;22.13;43.10;95295.34;4987222;28;20034;-73
2021/04/22 03:17:37;;;;;;;4.57;2.80;;;;;;;22.16;43.30;95299.78;4988063;28;20840;-74
2021/04/22 03:20:04;;;;;;;3.80;2.50;;;;;;;22.08;43.00;95282.47;4989802;28;20080;-73
2021/04/22 03:22:30;;;;;;;5.63;2.50;;;;;;;22.34;43.01;95299.31;4989678;28;20084;-77
2021/04/22 03:24:55;;;;;;;3.08;2.10;;;;;;;22.36;42.65;95291.44;4990768;28;20473;-74
2021/04/22 03:27:21;;;;;;;3.63;2.60;;;;;;;22.52;42.90;95306.97;4990429;28;20089;-75
2021/04/22 03:29:46;;;;;;;3.33;2.10;;;;;;;22.55;42.69;95308.72;4990783;28;20065;-77
2021/04/22 03:32:12;;;;;;;4.07;2.60;;;;;;;22.62;42.58;95302.78;4954244;28;20034;-76
2021/04/22 03:34:37;;;;;;;3.28;2.17;;;;;;;22.64;42.41;95300.28;4988452;28;20520;-75
2021/04/22 03:37:03;;;;;;;3.95;2.80;;;;;;;22.68;42.40;95306.22;4991113;28;20022;-76
2021/04/22 03:39:28;;;;;;;4.05;2.35;;;;;;;22.47;42.66;95285.97;4990600;28;20033;-76
2021/04/22 03:41:53;;;;;;;6.15;4.07;;;;;;;22.61;40.46;95317.63;4971365;28;20092;-76
2021/04/22 03:44:19;;;;;;;3.70;2.50;;;;;;;22.65;42.01;95318.13;4988586;28;20473;-76
2021/04/22 03:46:44;;;;;;;4.88;2.72;;;;;;;22.69;42.67;95318.59;4991120;28;20034;-74
2021/04/22 03:49:10;;;;;;;3.70;2.42;;;;;;;22.76;42.71;95318.09;4989920;28;20498;-76
2021/04/22 03:51:35;;;;;;;4.13;2.50;;;;;;;22.63;42.68;95293.34;4990203;28;20046;-77
2021/04/22 03:54:01;;;;;;;3.60;2.30;;;;;;;22.85;42.47;95320.56;4956052;28;20030;-76
2021/04/22 03:56:26;;;;;;;3.47;2.30;;;;;;;22.89;42.50;95322.50;4989637;28;20041;-75
2021/04/22 03:58:52;;;;;;;3.75;2.28;;;;;;;22.75;42.62;95294.81;4988791;28;20029;-76
2021/04/22 04:01:17;;;;;;;3.58;2.47;;;;;;;23.05;42.49;95323.75;4990034;28;20172;-76
2021/04/22 04:03:43;;;;;;;4.32;2.63;;;;;;;22.90;42.30;95296.78;4989289;28;20022;-77
2021/04/22 04:06:08;;;;;;;3.10;2.30;;;;;;;23.23;41.92;95328.63;4973216;28;20418;-77
2021/04/22 04:08:34;;;;;;;3.97;2.60;;;;;;;23.33;41.53;95335.31;4986441;28;20556;-76
2021/04/22 04:10:59;;;;;;;4.10;2.63;;;;;;;23.42;41.57;95335.75;4989604;28;20419;-76
2021/04/22 04:13:25;;;;;;;3.33;2.25;;;;;;;23.30;41.52;95301.63;4982091;28;20034;-81
2021/04/22 04:15:51;;;;;;;4.88;2.38;;;;;;;23.48;41.31;95306.50;4952220;28;21787;-78
2021/04/22 04:18:20;;;;;;;3.33;2.30;;;;;;;23.64;40.94;95335.69;4947612;28;20042;-76
2021/04/22 04:20:45;;;;;;;2.60;2.22;;;;;;;23.81;40.66;95339.84;4973193;28;20026;-76
2021/04/22 04:23:11;;;;;;;2.83;2.17;;;;;;;23.92;41.02;95340.50;4953804;28;20034;-76
2021/04/22 04:25:36;;;;;;;4.38;2.63;;;;;;;23.88;40.71;95326.41;4990496;28;20222;-76
2021/04/22 04:28:02;;;;;;;2.95;2.17;;;;;;;24.09;40.48;95349.31;4975480;28;20038;-77
2021/04/22 04:30:27;;;;;;;3.88;2.42;;;;;;;24.16;40.05;95354.25;4989278;28;20035;-76
2021/04/22 04:32:53;;;;;;;3.40;2.30;;;;;;;24.33;39.66;95357.63;4972464;28;20797;-76
2021/04/22 04:35:18;;;;;;;4.78;2.53;;;;;;;24.39;39.84;95366.53;4984569;28;20030;-77
2021/04/22 04:37:44;;;;;;;3.22;2.42;;;;;;;24.47;39.62;95357.28;4989132;28;20045;-78
2021/04/22 04:40:11;;;;;;;3.47;2.50;;;;;;;24.52;39.63;95369.41;4985868;28;20027;-75
2021/04/22 04:42:37;;;;;;;4.00;2.60;;;;;;;24.61;39.34;95360.91;4987463;28;20033;-78
2021/04/22 04:45:06;;;;;;;3.63;2.25;;;;;;;24.70;38.89;95368.78;4989382;28;20022;-75
2021/04/22 04:47:32;;;;;;;3.70;2.30;;;;;;;24.68;38.62;95344.72;4987988;28;20040;-74
2021/04/22 04:49:57;;;;;;;3.42;2.47;;;;;;;24.93;38.60;95377.03;4988339;28;20117;-76
2021/04/22 04:52:23;;;;;;;5.65;3.83;;;;;;;24.98;37.87;95378.94;4965663;28;20478;-74
2021/04/22 04:54:48;;;;;;;3.58;2.50;;;;;;;24.87;37.79;95351.72;4988053;28;20141;-75
2021/04/22 04:57:13;;;;;;;3.40;2.58;;;;;;;25.02;38.28;95368.53;4910096;28;20041;-78
2021/04/22 04:59:39;;;;;;;3.90;2.50;;;;;;;24.99;38.18;95358.59;4966606;28;20038;-76
2021/04/22 05:02:05;;;;;;;3.42;2.47;;;;;;;24.99;37.81;95358.59;4969734;28;20039;-76
2021/04/22 05:04:31;;;;;;;3.97;2.58;;;;;;;25.25;38.41;95379.97;4988874;28;20030;-78
2021/04/22 05:06:56;;;;;;;3.53;2.58;;;;;;;25.27;38.35;95382.94;4988978;28;20037;-79
2021/04/22 05:09:22;;;;;;;3.72;2.80;;;;;;;25.38;37.91;95383.53;4987041;28;20026;-73
2021/04/22 05:11:47;;;;;;;4.30;2.80;;;;;;;25.45;38.01;95382.97;4979620;28;20494;-75
2021/04/22 05:14:13;;;;;;;4.55;2.50;;;;;;;25.27;37.88;95367.25;4987513;28;20474;-75
2021/04/22 05:16:38;;;;;;;3.10;2.13;;;;;;;25.51;37.96;95378.19;4979569;28;20443;-75
2021/04/22 05:19:04;;;;;;;3.45;2.30;;;;;;;25.54;37.63;95380.63;4979929;28;20030;-76
2021/04/22 05:21:29;;;;;;;3.50;2.30;;;;;;;25.64;37.58;95383.75;4989003;28;20105;-76
2021/04/22 05:23:55;;;;;;;4.20;2.40;;;;;;;25.72;37.62;95390.16;4986016;28;20034;-74
2021/04/22 05:26:21;;;;;;;5.53;2.47;;;;;;;25.71;37.67;95385.94;4987913;28;20537;-74
2021/04/22 05:28:47;;;;;;;2.80;2.28;;;;;;;25.79;38.81;95395.06;4988188;28;20038;-82
2021/04/22 05:31:13;;;;;;;4.47;2.13;;;;;;;25.69;40.72;95369.28;4979928;28;20030;-82
2021/04/22 05:33:38;;;;;;;4.50;2.15;;;;;;;25.78;39.91;95371.69;4944330;28;20050;-85
2021/04/22 05:36:04;;;;;;;3.88;2.70;;;;;;;25.92;39.79;95382.94;4962360;28;20026;-84
2021/04/22 05:38:30;;;;;;;3.50;2.58;;;;;;;25.94;39.38;95391.34;4987476;28;20526;-77
2021/04/22 05:40:55;;;;;;;4.60;2.30;;;;;;;26.05;42.96;95396.69;4983871;28;20029;-75
2021/04/22 05:43:20;;;;;;;3.38;2.50;;;;;;;26.00;42.37;95402.97;4978415;28;20438;-77
2021/04/22 05:45:46;;;;;;;4.30;2.70;;;;;;;25.99;40.78;95398.78;4983950;28;20532;-78
2021/04/22 05:48:12;;;;;;;3.58;2.30;;;;;;;25.97;39.21;95398.53;4982656;28;20026;-75
2021/04/22 05:50:37;;;;;;;4.43;2.45;;;;;;;26.05;38.80;95402.19;4983436;28;20026;-75
2021/04/22 05:53:03;;;;;;;4.03;2.20;;;;;;;25.98;38.61;95391.81;4985889;28;20142;-75
2021/04/22 05:55:28;;;;;;;4.20;2.70;;;;;;;26.05;38.20;95407.66;4987582;28;20042;-82
2021/04/22 05:57:55;;;;;;;3.85;2.28;;;;;;;26.01;38.22;95390.78;4979626;28;20034;-83
2021/04/22 06:00:21;;;;;;;4.72;2.75;;;;;;;26.09;37.17;95399.88;5005291;28;20046;-86
2021/04/22 06:02:46;;;;;;;5.03;2.58;;;;;;;26.14;37.59;95399.03;4993935;28;20041;-75
2021/04/22 06:05:16;;;;;;;3.60;2.63;;;;;;;26.18;38.00;95396.03;5000068;28;20080;-78
2021/04/22 06:07:41;;;;;;;3.17;2.30;;;;;;;26.21;37.67;95397.72;4986819;28;20145;-76
2021/04/22 06:10:07;;;;;;;2.50;1.80;;;;;;;26.27;37.68;95388.16;4984930;28;20027;-76
2021/04/22 06:12:32;;;;;;;4.20;2.70;;;;;;;26.27;37.61;95396.38;4984485;28;20030;-78
2021/04/22 06:14:58;;;;;;;3.60;2.40;;;;;;;26.32;37.47;95399.09;4987578;28;20482;-76
2021/04/22 06:17:24;;;;;;;3.58;2.38;;;;;;;26.38;37.49;95401.72;4986698;28;20046;-81
2021/04/22 06:19:49;;;;;;;3.42;2.30;;;;;;;26.37;37.17;95395.53;4987672;28;20485;-78
2021/04/22 06:22:15;;;;;;;2.78;2.10;;;;;;;26.40;37.20;95396.50;4987239;28;20030;-77
2021/04/22 06:24:40;;;;;;;4.78;2.83;;;;;;;26.52;36.84;95400.56;4986859;28;20019;-71
2021/04/22 06:27:06;;;;;;;3.40;2.38;;;;;;;26.46;37.15;95400.63;4981746;28;21192;-70
2021/04/22 06:29:31;;;;;;;4.10;2.50;;;;;;;26.43;36.99;95384.50;4986006;28;20022;-71
2021/04/22 06:31:57;;;;;;;3.95;2.58;;;;;;;26.36;36.98;95387.81;4979543;28;20022;-71
2021/04/22 06:34:22;;;;;;;3.25;2.33;;;;;;;26.37;36.86;95394.78;4984852;28;20381;-72
2021/04/22 06:36:49;;;;;;;3.58;2.63;;;;;;;26.46;36.83;95391.69;4986238;28;20033;-71
2021/04/22 06:39:14;;;;;;;4.15;2.50;;;;;;;26.49;36.77;95396.13;4983083;28;20039;-71
2021/04/22 06:41:40;;;;;;;3.45;2.80;;;;;;;26.46;36.34;95392.41;4980490;28;20035;-71
2021/04/22 06:44:05;;;;;;;3.33;2.53;;;;;;;26.33;36.48;95377.91;4987433;28;20089;-70
2021/04/22 06:46:32;;;;;;;3.20;2.50;;;;;;;26.42;36.43;95393.97;4987314;28;20508;-71
2021/04/22 06:48:58;;;;;;;4.18;2.65;;;;;;;26.38;36.48;95390.78;4986002;28;20038;-71
2021/04/22 06:51:23;;;;;;;4.50;3.00;;;;;;;26.40;36.48;95380.78;4987158;28;20033;-71
2021/04/22 06:53:48;;;;;;;3.72;2.72;;;;;;;26.36;36.36;95393.31;4987071;28;20041;-71
2021/04/22 06:56:14;;;;;;;4.28;2.70;;;;;;;26.39;36.29;95392.25;4989887;28;20399;-71
2021/04/22 06:58:39;;;;;;;3.95;2.80;;;;;;;26.24;36.36;95386.47;4990087;28;20494;-71
2021/04/22 07:01:05;;;;;;;4.13;2.58;;;;;;;26.27;36.38;95391.66;4990880;28;20026;-72
2021/04/22 07:03:30;;;;;;;4.55;2.80;;;;;;;26.20;36.32;95391.50;4991271;28;20042;-71
2021/04/22 07:05:56;;;;;;;3.80;2.70;;;;;;;26.03;36.01;95393.72;4986975;28;20034;-71
2021/04/22 07:08:21;;;;;;;4.03;2.97;;;;;;;25.98;36.52;95397.28;4987444;28;20030;-71
2021/04/22 07:10:48;;;;;;;4.55;3.20;;;;;;;25.81;37.05;95383.06;4946596;28;20042;-71
2021/04/22 07:13:13;;;;;;;3.72;2.80;;;;;;;25.89;36.76;95389.44;4996109;28;20141;-75
2021/04/22 07:15:38;;;;;;;4.32;2.47;;;;;;;25.84;36.75;95393.00;4986906;28;20490;-70
2021/04/22 07:18:06;;;;;;;4.05;2.53;;;;;;;25.81;37.11;95394.03;4990207;28;20109;-69
2021/04/22 07:20:31;;;;;;;4.70;2.72;;;;;;;25.72;37.48;95390.16;4989559;28;20029;-70
2021/04/22 07:22:57;;;;;;;5.70;3.22;;;;;;;25.61;37.62;95395.72;4985642;28;20026;-71
2021/04/22 07:25:24;;;;;;;4.72;3.25;;;;;;;25.51;37.86;95402.78;4985444;28;20022;-72
2021/04/22 07:27:49;;;;;;;4.85;2.85;;;;;;;25.48;37.80;95403.81;4993895;28;20088;-71
2021/04/22 07:30:15;;;;;;;3.92;2.72;;;;;;;25.43;37.95;95401.91;4978743;28;20056;-72
2021/04/22 07:32:41;;;;;;;4.65;2.92;;;;;;;25.42;38.39;95398.41;4976798;28;20049;-70
2021/04/22 07:35:08;;;;;;;4.63;2.85;;;;;;;25.34;37.96;95391.31;4986858;28;20030;-71
2021/04/22 07:37:33;;;;;;;5.32;2.85;;;;;;;25.35;38.10;95395.50;4987846;28;20023;-71
2021/04/22 07:39:59;;;;;;;4.45;2.83;;;;;;;25.42;37.83;95405.88;4985126;28;20059;-72
2021/04/22 07:42:24;;;;;;;4.65;3.00;;;;;;;25.34;37.91;95400.22;4990513;28;20509;-69
2021/04/22 07:44:50;;;;;;;4.40;2.70;;;;;;;25.33;38.24;95398.78;4991438;28;20030;-68
2021/04/22 07:47:17;;;;;;;4.97;2.97;;;;;;;25.32;38.22;95407.47;4991394;28;20034;-72
2021/04/22 07:49:43;;;;;;;4.63;3.22;;;;;;;25.28;38.16;95401.56;4991206;28;20085;-70
2021/04/22 07:52:09;;;;;;;3.58;2.58;;;;;;;25.24;38.23;95401.09;4991435;28;20026;-70
2021/04/22 07:54:34;;;;;;;7.10;2.90;;;;;;;25.21;38.12;95396.63;4991960;28;20050;-69
2021/04/22 07:57:00;;;;;;;5.15;2.90;;;;;;;25.20;38.05;95392.44;4991544;28;20021;-69
2021/04/22 07:59:25;;;;;;;4.28;2.72;;;;;;;25.17;38.47;95385.25;4990675;28;20080;-69
2021/04/22 08:01:51;;;;;;;4.90;2.80;;;;;;;25.13;38.14;95387.53;4986961;28;20081;-69
2021/04/22 08:04:16;;;;;;;5.15;3.05;;;;;;;25.10;38.55;95385.09;4989260;28;20018;-69
2021/04/22 08:06:42;;;;;;;5.03;3.20;;;;;;;25.04;38.97;95376.94;4990042;28;20030;-69
2021/04/22 08:09:07;;;;;;;4.38;2.97;;;;;;;25.03;38.49;95380.19;4988531;28;20030;-70
2021/04/22 08:11:33;;;;;;;4.25;2.70;;;;;;;24.92;38.80;95364.59;4991610;28;20033;-69
2021/04/22 08:13:58;;;;;;;5.38;3.05;;;;;;;24.96;38.82;95369.78;4991611;28;20061;-69
2021/04/22 08:16:24;;;;;;;5.00;3.22;;;;;;;24.98;38.72;95373.47;4991227;28;20061;-69
2021/04/22 08:18:49;;;;;;;4.80;3.15;;;;;;;24.92;38.64;95370.06;4991152;28;20026;-69
2021/04/22 08:21:15;;;;;;;4.70;2.95;;;;;;;24.86;38.79;95363.91;4991069;28;20029;-69
2021/04/22 08:23:40;;;;;;;3.78;3.00;;;;;;;24.88;38.49;95361.41;4989658;28;20030;-68
2021/04/22 08:26:08;;;;;;;4.82;3.33;;;;;;;24.71;38.61;95348.38;4989629;28;20029;-69
2021/04/22 08:28:33;;;;;;;4.40;3.40;;;;;;;24.86;38.34;95363.91;4990824;28;20061;-68
2021/04/22 08:31:01;;;;;;;5.35;3.28;;;;;;;24.84;38.55;95355.50;4990637;28;20022;-69
2021/04/22 08:33:27;;;;;;;5.50;3.17;;;;;;;24.76;38.20;95356.53;4990358;28;20346;-69
2021/04/22 08:35:53;;;;;;;4.50;3.05;;;;;;;24.81;38.62;95363.22;4988181;28;20033;-69
2021/04/22 08:38:19;;;;;;;5.10;3.30;;;;;;;24.79;38.53;95354.78;4988905;28;20153;-69
2021/04/22 08:40:45;;;;;;;4.68;3.22;;;;;;;24.77;38.45;95358.03;4987156;28;20026;-69
2021/04/22 08:43:11;;;;;;;7.85;4.35;;;;;;;24.67;34.28;95358.88;4989216;28;20044;-69
2021/04/22 08:45:36;;;;;;;7.47;4.15;;;;;;;24.67;37.55;95358.88;4988165;28;20025;-69
2021/04/22 08:48:02;;;;;;;5.88;3.78;;;;;;;24.68;37.63;95354.88;4989084;28;20486;-69
2021/04/22 08:50:29;;;;;;;6.35;3.42;;;;;;;24.50;37.76;95328.25;4988611;28;20030;-71
2021/04/22 08:52:56;;;;;;;5.72;3.35;;;;;;;24.66;37.79;95346.47;4988596;28;20030;-71
2021/04/22 08:55:23;;;;;;;5.65;3.47;;;;;;;24.64;37.93;95349.69;4988900;28;20029;-71
2021/04/22 08:57:48;;;;;;;5.85;3.40;;;;;;;24.65;37.72;95350.44;4988588;28;20077;-71
2021/04/22 09:00:15;;;;;;;5.07;3.30;;;;;;;24.60;37.85;95343.03;4987743;28;20034;-71
2021/04/22 09:02:41;;;;;;;5.72;3.47;;;;;;;24.62;37.75;95340.53;4988612;28;20068;-70
2021/04/22 09:05:07;;;;;;;6.40;3.30;;;;;;;24.62;37.69;95335.06;4989139;28;20042;-72
2021/04/22 09:07:33;;;;;;;4.88;3.10;;;;;;;24.58;38.26;95340.06;4985416;28;20026;-71
2021/04/22 09:10:00;;;;;;;5.13;3.17;;;;;;;24.62;38.44;95335.06;4988406;28;20022;-71
2021/04/22 09:12:26;;;;;;;5.43;3.65;;;;;;;24.61;37.98;95328.88;4988317;28;20026;-70
2021/04/22 09:14:56;;;;;;;5.45;3.25;;;;;;;24.59;38.37;95319.72;4988980;28;20026;-72
2021/04/22 09:17:22;;;;;;;4.45;3.08;;;;;;;24.63;38.15;95322.91;4988648;28;20042;-74
2021/04/22 09:19:48;;;;;;;4.63;2.92;;;;;;;24.66;38.33;95324.59;4987505;28;20092;-72
2021/04/22 09:22:14;;;;;;;4.80;3.00;;;;;;;24.73;38.65;95319.31;4985444;28;20041;-75
2021/04/22 09:24:39;;;;;;;5.70;3.38;;;;;;;24.78;38.28;95315.78;4985865;28;20100;-74
2021/04/22 09:27:09;;;;;;;4.93;3.05;;;;;;;24.72;38.69;95304.19;4984280;28;20096;-75
2021/04/22 09:29:36;;;;;;;6.60;3.08;;;;;;;24.95;38.23;95303.47;4979454;28;20034;-75
2021/04/22 09:32:08;;;;;;;4.60;3.17;;;;;;;25.03;38.06;95309.84;4983109;28;20042;-74
2021/04/22 09:34:33;;;;;;;4.35;2.60;;;;;;;25.14;38.01;95309.75;4986915;28;20034;-74
2021/04/22 09:36:59;;;;;;;4.18;2.65;;;;;;;25.24;38.05;95308.13;4986560;28;20102;-75
2021/04/22 09:39:26;;;;;;;4.13;2.90;;;;;;;25.28;37.70;95297.66;4985745;28;20036;-73
2021/04/22 09:41:54;;;;;;;5.97;2.85;;;;;;;25.45;37.85;95295.47;4988066;28;20030;-71
2021/04/22 09:44:20;;;;;;;4.07;2.60;;;;;;;25.31;37.86;95269.28;4982199;28;20050;-76
2021/04/22 09:46:47;;;;;;;4.57;2.80;;;;;;;25.63;37.50;95292.00;4985638;28;20026;-74
2021/04/22 09:49:17;;;;;;;4.13;2.85;;;;;;;25.50;37.31;95259.09;5002467;28;20100;-78
2021/04/22 09:51:45;;;;;;;4.72;2.67;;;;;;;25.64;37.41;95257.94;4977862;28;20064;-74
2021/04/22 09:54:21;;;;;;;5.55;2.80;;;;;;;25.73;37.15;95263.06;4968903;28;20026;-72
2021/04/22 09:56:53;;;;;;;3.92;2.67;;;;;;;25.98;37.03;95282.34;4980240;28;20034;-75
2021/04/22 09:59:20;;;;;;;4.18;2.53;;;;;;;26.04;37.16;95280.25;4986142;28;20548;-76
2021/04/22 10:02:04;;;;;;;4.72;2.90;;;;;;;26.07;37.27;95284.69;4985954;28;20018;-77
2021/04/22 10:04:34;;;;;;;4.15;2.40;;;;;;;26.08;36.89;95260.78;4986743;28;20029;-73
2021/04/22 10:06:59;;;;;;;4.80;2.42;;;;;;;26.30;36.81;95266.69;4978652;28;20045;-73
2021/04/22 10:09:32;;;;;;;4.55;2.85;;;;;;;26.37;36.56;95257.88;4982429;28;20023;-77
2021/04/22 10:11:58;;;;;;;4.07;2.83;;;;;;;26.23;36.46;95226.19;4987945;28;20031;-76
2021/04/22 10:14:37;;;;;;;4.05;2.58;;;;;;;26.25;36.49;95245.59;4977503;28;21247;-76
2021/04/22 10:17:16;;;;;;;4.78;2.88;;;;;;;26.37;36.52;95236.69;4984583;28;20050;-75
2021/04/22 10:19:41;;;;;;;3.70;2.42;;;;;;;26.46;36.12;95271.16;4987110;28;20100;-77
2021/04/22 10:22:07;;;;;;;5.13;2.65;;;;;;;26.53;36.58;95245.88;4984860;28;20030;-79
2021/04/22 10:24:33;;;;;;;3.60;2.65;;;;;;;26.45;36.26;95226.56;4983683;28;20498;-81
2021/04/22 10:27:03;;;;;;;3.13;2.38;;;;;;;26.72;36.17;95232.84;4989087;28;20731;-82
2021/04/22 10:29:29;;;;;;;4.00;2.38;;;;;;;26.51;36.05;95196.34;4988613;28;20030;-76
2021/04/22 10:31:55;;;;;;;5.25;2.53;;;;;;;26.78;36.55;95237.69;4992301;28;20109;-77
2021/04/22 10:34:21;;;;;;;3.78;2.22;;;;;;;26.87;35.78;95229.03;4993441;28;20528;-77
2021/04/22 10:36:46;;;;;;;4.50;2.80;;;;;;;26.92;35.88;95220.03;4977445;28;20026;-77
2021/04/22 10:39:12;;;;;;;3.28;2.00;;;;;;;26.90;35.37;95205.34;4993289;28;20026;-83
2021/04/22 10:41:38;;;;;;;3.70;2.25;;;;;;;27.16;35.78;95233.50;4985112;28;20026;-75
2021/04/22 10:44:04;;;;;;;4.35;2.28;;;;;;;27.16;35.33;95222.53;4991028;28;20074;-79
2021/04/22 10:46:31;;;;;;;4.03;2.38;;;;;;;27.16;35.79;95230.75;5000763;28;20035;-77
2021/04/22 10:48:57;;;;;;;3.60;2.38;;;;;;;27.30;35.44;95237.69;4986596;28;20030;-73
2021/04/22 10:51:22;;;;;;;4.28;2.20;;;;;;;27.27;35.43;95239.47;5000279;28;20026;-76
2021/04/22 10:53:48;;;;;;;3.33;2.28;;;;;;;27.35;35.53;95234.09;4988964;28;20521;-74
2021/04/22 10:56:13;;;;;;;2.65;2.28;;;;;;;27.37;35.39;95226.09;4991715;28;20482;-73
2021/04/22 10:58:40;;;;;;;3.83;2.53;;;;;;;27.24;35.59;95217.88;4986533;28;20038;-76
2021/04/22 11:01:10;;;;;;;3.55;2.30;;;;;;;27.25;35.25;95208.38;4992753;28;20018;-69
2021/04/22 11:03:39;;;;;;;4.85;2.42;;;;;;;27.19;35.48;95224.22;4990168;28;20031;-70
2021/04/22 11:06:06;;;;;;;3.33;2.30;;;;;;;27.14;35.59;95225.06;4990412;28;20038;-70
2021/04/22 11:08:36;;;;;;;3.22;2.20;;;;;;;26.96;35.52;95209.47;4985028;28;20034;-72
2021/04/22 11:11:02;;;;;;;3.67;2.33;;;;;;;26.96;35.56;95212.19;4979617;28;20105;-72
2021/04/22 11:13:32;;;;;;;3.08;2.30;;;;;;;26.95;35.75;95212.72;4987909;28;20062;-71
2021/04/22 11:15:59;;;;;;;2.75;1.92;;;;;;;26.87;36.13;95201.63;4992768;28;20076;-72
2021/04/22 11:18:35;;;;;;;3.63;2.45;;;;;;;26.69;35.81;95198.28;4993954;28;20078;-72
2021/04/22 11:21:00;;;;;;;3.95;2.30;;;;;;;26.71;36.09;95187.50;4994236;28;20030;-72
2021/04/22 11:23:25;;;;;;;3.75;2.15;;;;;;;26.70;36.17;95207.97;4992701;28;20439;-72
2021/04/22 11:25:55;;;;;;;2.92;2.05;;;;;;;26.59;36.25;95186.25;4994389;28;20018;-72
2021/04/22 11:28:36;;;;;;;3.53;2.20;;;;;;;26.43;36.09;95165.38;4995420;28;20038;-75